sensor_id;sensor_type;location;lat;lon;timestamp;P1;durP1;ratioP1;P2;durP2;ratioP2
4112;SDS011;2070;51.042;7.056;2023-05-10T00:01:36;12.20;;;7.40;;
4112;SDS011;2070;51.042;7.056;2023-05-10T00:04:02;11.93;;;7.23;;
4112;SDS011;2070;51.042;7.056;2023-05-10T00:06:27;16.07;;;9.10;;
4112;SDS011;2070;51.042;7.056;2023-05-10T00:08:52;17.47;;;8.50;;
4112;SDS011;2070;51.042;7.056;2023-05-10T00:11:18;14.17;;;8.23;;
4112;SDS011;2070;51.042;7.056;2023-05-10T00:13:43;16.90;;;7.77;;
4112;SDS011;2070;51.042;7.056;2023-05-10T00:16:08;14.70;;;8.90;;
4112;SDS011;2070;51.042;7.056;2023-05-10T00:18:33;16.07;;;8.00;;
4112;SDS011;2070;51.042;7.056;2023-05-10T00:20:58;16.50;;;8.17;;
4112;SDS011;2070;51.042;7.056;2023-05-10T00:23:24;17.23;;;8.47;;
4112;SDS011;2070;51.042;7.056;2023-05-10T00:25:49;18.83;;;9.00;;
4112;SDS011;2070;51.042;7.056;2023-05-10T00:28:14;16.70;;;8.97;;
4112;SDS011;2070;51.042;7.056;2023-05-10T00:30:39;16.30;;;8.60;;
4112;SDS011;2070;51.042;7.056;2023-05-10T00:33:04;17.40;;;9.27;;
4112;SDS011;2070;51.042;7.056;2023-05-10T00:35:30;20.00;;;10.67;;
4112;SDS011;2070;51.042;7.056;2023-05-10T00:37:55;17.50;;;8.63;;
4112;SDS011;2070;51.042;7.056;2023-05-10T00:40:20;18.63;;;9.63;;
4112;SDS011;2070;51.042;7.056;2023-05-10T00:42:46;21.43;;;11.93;;
4112;SDS011;2070;51.042;7.056;2023-05-10T00:45:11;23.23;;;11.20;;
4112;SDS011;2070;51.042;7.056;2023-05-10T00:47:36;17.27;;;9.93;;
4112;SDS011;2070;51.042;7.056;2023-05-10T00:50:02;20.30;;;10.80;;
4112;SDS011;2070;51.042;7.056;2023-05-10T00:52:28;26.53;;;10.63;;
4112;SDS011;2070;51.042;7.056;2023-05-10T00:54:53;22.10;;;11.60;;
4112;SDS011;2070;51.042;7.056;2023-05-10T00:57:19;22.77;;;10.23;;
4112;SDS011;2070;51.042;7.056;2023-05-10T00:59:44;26.53;;;10.60;;
4112;SDS011;2070;51.042;7.056;2023-05-10T01:02:09;18.73;;;9.50;;
4112;SDS011;2070;51.042;7.056;2023-05-10T01:10:40;20.97;;;9.90;;
4112;SDS011;2070;51.042;7.056;2023-05-10T01:13:06;23.20;;;10.90;;
4112;SDS011;2070;51.042;7.056;2023-05-10T01:15:31;21.17;;;11.13;;
4112;SDS011;2070;51.042;7.056;2023-05-10T01:17:56;25.13;;;9.63;;
4112;SDS011;2070;51.042;7.056;2023-05-10T01:20:22;16.73;;;8.03;;
4112;SDS011;2070;51.042;7.056;2023-05-10T01:35:00;16.55;;;8.70;;
4112;SDS011;2070;51.042;7.056;2023-05-10T01:37:40;15.23;;;9.60;;
4112;SDS011;2070;51.042;7.056;2023-05-10T01:40:08;23.30;;;11.20;;
4112;SDS011;2070;51.042;7.056;2023-05-10T01:42:40;18.80;;;9.73;;
4112;SDS011;2070;51.042;7.056;2023-05-10T01:47:35;23.70;;;9.43;;
4112;SDS011;2070;51.042;7.056;2023-05-10T01:50:03;21.63;;;11.57;;
4112;SDS011;2070;51.042;7.056;2023-05-10T01:52:33;18.23;;;10.40;;
4112;SDS011;2070;51.042;7.056;2023-05-10T01:55:02;20.87;;;11.67;;
4112;SDS011;2070;51.042;7.056;2023-05-10T01:57:31;24.43;;;9.43;;
4112;SDS011;2070;51.042;7.056;2023-05-10T01:59:57;24.87;;;11.60;;
4112;SDS011;2070;51.042;7.056;2023-05-10T02:02:23;17.87;;;10.00;;
4112;SDS011;2070;51.042;7.056;2023-05-10T02:04:49;14.57;;;9.20;;
4112;SDS011;2070;51.042;7.056;2023-05-10T02:07:15;18.30;;;9.40;;
4112;SDS011;2070;51.042;7.056;2023-05-10T02:09:42;25.97;;;9.23;;
4112;SDS011;2070;51.042;7.056;2023-05-10T02:12:09;15.20;;;8.87;;
4112;SDS011;2070;51.042;7.056;2023-05-10T02:14:35;11.07;;;7.80;;
4112;SDS011;2070;51.042;7.056;2023-05-10T02:17:01;14.63;;;8.20;;
4112;SDS011;2070;51.042;7.056;2023-05-10T02:19:27;13.97;;;6.63;;
4112;SDS011;2070;51.042;7.056;2023-05-10T02:21:53;11.90;;;6.90;;
4112;SDS011;2070;51.042;7.056;2023-05-10T02:24:20;15.90;;;7.40;;
4112;SDS011;2070;51.042;7.056;2023-05-10T02:26:46;14.50;;;8.03;;
4112;SDS011;2070;51.042;7.056;2023-05-10T02:29:12;12.73;;;7.70;;
4112;SDS011;2070;51.042;7.056;2023-05-10T02:31:38;11.77;;;7.30;;
4112;SDS011;2070;51.042;7.056;2023-05-10T02:34:04;12.10;;;8.13;;
4112;SDS011;2070;51.042;7.056;2023-05-10T02:36:31;11.00;;;7.33;;
4112;SDS011;2070;51.042;7.056;2023-05-10T02:38:56;14.40;;;6.47;;
4112;SDS011;2070;51.042;7.056;2023-05-10T02:41:22;33.47;;;8.10;;
4112;SDS011;2070;51.042;7.056;2023-05-10T02:43:49;13.93;;;6.30;;
4112;SDS011;2070;51.042;7.056;2023-05-10T02:46:15;15.93;;;7.30;;
4112;SDS011;2070;51.042;7.056;2023-05-10T02:48:40;11.07;;;6.63;;
4112;SDS011;2070;51.042;7.056;2023-05-10T02:51:07;15.23;;;7.50;;
4112;SDS011;2070;51.042;7.056;2023-05-10T02:53:33;10.73;;;7.10;;
4112;SDS011;2070;51.042;7.056;2023-05-10T02:56:00;12.23;;;6.93;;
4112;SDS011;2070;51.042;7.056;2023-05-10T02:58:26;19.37;;;6.93;;
4112;SDS011;2070;51.042;7.056;2023-05-10T03:00:51;14.07;;;8.40;;
4112;SDS011;2070;51.042;7.056;2023-05-10T03:03:16;16.10;;;7.20;;
4112;SDS011;2070;51.042;7.056;2023-05-10T03:05:42;14.40;;;8.17;;
4112;SDS011;2070;51.042;7.056;2023-05-10T03:08:07;10.03;;;6.80;;
4112;SDS011;2070;51.042;7.056;2023-05-10T03:10:32;15.93;;;9.00;;
4112;SDS011;2070;51.042;7.056;2023-05-10T03:13:09;23.40;;;9.20;;
4112;SDS011;2070;51.042;7.056;2023-05-10T03:20:36;10.50;;;6.90;;
4112;SDS011;2070;51.042;7.056;2023-05-10T03:25:47;16.27;;;8.20;;
4112;SDS011;2070;51.042;7.056;2023-05-10T03:28:13;15.77;;;7.63;;
4112;SDS011;2070;51.042;7.056;2023-05-10T03:30:39;16.27;;;8.43;;
4112;SDS011;2070;51.042;7.056;2023-05-10T03:33:05;16.63;;;8.73;;
4112;SDS011;2070;51.042;7.056;2023-05-10T03:35:31;19.30;;;10.33;;
4112;SDS011;2070;51.042;7.056;2023-05-10T03:37:56;17.87;;;6.77;;
4112;SDS011;2070;51.042;7.056;2023-05-10T03:40:21;21.77;;;7.93;;
4112;SDS011;2070;51.042;7.056;2023-05-10T03:42:48;15.23;;;7.47;;
4112;SDS011;2070;51.042;7.056;2023-05-10T03:45:13;18.77;;;9.00;;
4112;SDS011;2070;51.042;7.056;2023-05-10T03:47:38;20.37;;;8.13;;
4112;SDS011;2070;51.042;7.056;2023-05-10T03:50:03;15.63;;;7.83;;
4112;SDS011;2070;51.042;7.056;2023-05-10T03:52:29;12.30;;;6.87;;
4112;SDS011;2070;51.042;7.056;2023-05-10T03:54:54;13.07;;;8.10;;
4112;SDS011;2070;51.042;7.056;2023-05-10T03:57:19;16.97;;;8.03;;
4112;SDS011;2070;51.042;7.056;2023-05-10T03:59:44;11.70;;;7.57;;
4112;SDS011;2070;51.042;7.056;2023-05-10T04:02:10;13.73;;;6.87;;
4112;SDS011;2070;51.042;7.056;2023-05-10T04:04:35;18.43;;;7.87;;
4112;SDS011;2070;51.042;7.056;2023-05-10T04:07:00;10.60;;;7.00;;
4112;SDS011;2070;51.042;7.056;2023-05-10T04:09:25;11.63;;;7.17;;
4112;SDS011;2070;51.042;7.056;2023-05-10T04:11:51;15.20;;;7.60;;
4112;SDS011;2070;51.042;7.056;2023-05-10T04:14:16;19.93;;;8.50;;
4112;SDS011;2070;51.042;7.056;2023-05-10T04:16:41;14.20;;;7.90;;
4112;SDS011;2070;51.042;7.056;2023-05-10T04:19:06;12.97;;;8.40;;
4112;SDS011;2070;51.042;7.056;2023-05-10T04:21:32;17.87;;;8.63;;
4112;SDS011;2070;51.042;7.056;2023-05-10T04:23:57;26.10;;;8.33;;
4112;SDS011;2070;51.042;7.056;2023-05-10T04:26:23;19.40;;;7.70;;
4112;SDS011;2070;51.042;7.056;2023-05-10T04:28:48;12.10;;;7.33;;
4112;SDS011;2070;51.042;7.056;2023-05-10T04:31:14;21.33;;;8.23;;
4112;SDS011;2070;51.042;7.056;2023-05-10T04:33:39;13.43;;;7.90;;
4112;SDS011;2070;51.042;7.056;2023-05-10T04:36:05;24.30;;;8.83;;
4112;SDS011;2070;51.042;7.056;2023-05-10T04:38:30;19.70;;;9.47;;
4112;SDS011;2070;51.042;7.056;2023-05-10T04:41:05;18.00;;;9.97;;
4112;SDS011;2070;51.042;7.056;2023-05-10T04:43:31;21.20;;;10.50;;
4112;SDS011;2070;51.042;7.056;2023-05-10T04:45:56;16.77;;;9.20;;
4112;SDS011;2070;51.042;7.056;2023-05-10T04:48:21;19.40;;;8.60;;
4112;SDS011;2070;51.042;7.056;2023-05-10T04:50:47;13.60;;;9.27;;
4112;SDS011;2070;51.042;7.056;2023-05-10T04:53:12;24.50;;;10.43;;
4112;SDS011;2070;51.042;7.056;2023-05-10T04:55:37;29.93;;;14.60;;
4112;SDS011;2070;51.042;7.056;2023-05-10T04:58:03;22.20;;;12.90;;
4112;SDS011;2070;51.042;7.056;2023-05-10T05:00:28;21.10;;;11.40;;
4112;SDS011;2070;51.042;7.056;2023-05-10T05:02:53;29.17;;;12.30;;
4112;SDS011;2070;51.042;7.056;2023-05-10T05:05:18;25.93;;;13.20;;
4112;SDS011;2070;51.042;7.056;2023-05-10T05:07:44;29.63;;;13.00;;
4112;SDS011;2070;51.042;7.056;2023-05-10T05:10:09;24.57;;;12.63;;
4112;SDS011;2070;51.042;7.056;2023-05-10T05:12:35;29.60;;;13.73;;
4112;SDS011;2070;51.042;7.056;2023-05-10T05:15:00;33.87;;;15.37;;
4112;SDS011;2070;51.042;7.056;2023-05-10T05:17:25;24.40;;;14.10;;
4112;SDS011;2070;51.042;7.056;2023-05-10T05:19:51;31.23;;;13.30;;
4112;SDS011;2070;51.042;7.056;2023-05-10T05:22:16;22.37;;;12.13;;
4112;SDS011;2070;51.042;7.056;2023-05-10T05:24:41;22.07;;;12.20;;
4112;SDS011;2070;51.042;7.056;2023-05-10T05:27:06;24.17;;;13.30;;
4112;SDS011;2070;51.042;7.056;2023-05-10T05:29:32;46.73;;;14.43;;
4112;SDS011;2070;51.042;7.056;2023-05-10T05:31:58;35.30;;;14.80;;
4112;SDS011;2070;51.042;7.056;2023-05-10T05:34:23;27.20;;;13.80;;
4112;SDS011;2070;51.042;7.056;2023-05-10T05:36:49;25.30;;;13.43;;
4112;SDS011;2070;51.042;7.056;2023-05-10T05:39:14;33.97;;;13.63;;
4112;SDS011;2070;51.042;7.056;2023-05-10T05:41:39;35.40;;;12.80;;
4112;SDS011;2070;51.042;7.056;2023-05-10T05:44:04;23.80;;;11.83;;
4112;SDS011;2070;51.042;7.056;2023-05-10T05:46:30;27.27;;;12.00;;
4112;SDS011;2070;51.042;7.056;2023-05-10T05:48:55;32.13;;;13.43;;
4112;SDS011;2070;51.042;7.056;2023-05-10T05:51:20;21.50;;;11.70;;
4112;SDS011;2070;51.042;7.056;2023-05-10T05:53:46;17.10;;;11.07;;
4112;SDS011;2070;51.042;7.056;2023-05-10T05:56:11;17.67;;;10.63;;
4112;SDS011;2070;51.042;7.056;2023-05-10T05:58:36;24.57;;;13.57;;
4112;SDS011;2070;51.042;7.056;2023-05-10T06:01:01;21.50;;;10.90;;
4112;SDS011;2070;51.042;7.056;2023-05-10T06:03:26;25.07;;;12.83;;
4112;SDS011;2070;51.042;7.056;2023-05-10T06:05:52;38.03;;;12.73;;
4112;SDS011;2070;51.042;7.056;2023-05-10T06:08:17;28.63;;;11.63;;
4112;SDS011;2070;51.042;7.056;2023-05-10T06:10:42;24.17;;;12.83;;
4112;SDS011;2070;51.042;7.056;2023-05-10T06:13:07;27.97;;;12.60;;
4112;SDS011;2070;51.042;7.056;2023-05-10T06:15:32;25.43;;;12.57;;
4112;SDS011;2070;51.042;7.056;2023-05-10T06:17:58;22.27;;;10.90;;
4112;SDS011;2070;51.042;7.056;2023-05-10T06:20:23;25.73;;;11.20;;
4112;SDS011;2070;51.042;7.056;2023-05-10T06:22:48;26.67;;;11.73;;
4112;SDS011;2070;51.042;7.056;2023-05-10T06:25:13;44.20;;;12.30;;
4112;SDS011;2070;51.042;7.056;2023-05-10T06:27:39;43.23;;;12.13;;
4112;SDS011;2070;51.042;7.056;2023-05-10T06:30:05;32.63;;;11.87;;
4112;SDS011;2070;51.042;7.056;2023-05-10T06:32:30;35.10;;;12.33;;
4112;SDS011;2070;51.042;7.056;2023-05-10T06:34:56;31.07;;;11.90;;
4112;SDS011;2070;51.042;7.056;2023-05-10T06:37:21;31.20;;;11.00;;
4112;SDS011;2070;51.042;7.056;2023-05-10T06:39:46;28.47;;;12.80;;
4112;SDS011;2070;51.042;7.056;2023-05-10T06:42:11;26.53;;;13.00;;
4112;SDS011;2070;51.042;7.056;2023-05-10T06:44:36;27.00;;;12.17;;
4112;SDS011;2070;51.042;7.056;2023-05-10T06:47:02;22.97;;;10.60;;
4112;SDS011;2070;51.042;7.056;2023-05-10T06:49:27;47.60;;;12.80;;
4112;SDS011;2070;51.042;7.056;2023-05-10T06:51:52;43.73;;;11.57;;
4112;SDS011;2070;51.042;7.056;2023-05-10T06:54:17;24.10;;;11.17;;
4112;SDS011;2070;51.042;7.056;2023-05-10T06:56:43;22.03;;;11.80;;
4112;SDS011;2070;51.042;7.056;2023-05-10T06:59:08;26.07;;;12.40;;
4112;SDS011;2070;51.042;7.056;2023-05-10T07:01:33;22.77;;;11.73;;
4112;SDS011;2070;51.042;7.056;2023-05-10T07:03:58;26.93;;;10.20;;
4112;SDS011;2070;51.042;7.056;2023-05-10T07:06:24;29.20;;;12.80;;
4112;SDS011;2070;51.042;7.056;2023-05-10T07:08:49;34.73;;;12.70;;
4112;SDS011;2070;51.042;7.056;2023-05-10T07:11:14;29.03;;;11.40;;
4112;SDS011;2070;51.042;7.056;2023-05-10T07:13:39;29.10;;;13.87;;
4112;SDS011;2070;51.042;7.056;2023-05-10T07:16:08;31.63;;;13.03;;
4112;SDS011;2070;51.042;7.056;2023-05-10T07:18:34;24.73;;;11.73;;
4112;SDS011;2070;51.042;7.056;2023-05-10T07:20:59;24.43;;;12.23;;
4112;SDS011;2070;51.042;7.056;2023-05-10T07:23:24;20.07;;;11.30;;
4112;SDS011;2070;51.042;7.056;2023-05-10T07:25:50;27.00;;;11.57;;
4112;SDS011;2070;51.042;7.056;2023-05-10T07:28:17;33.73;;;13.27;;
4112;SDS011;2070;51.042;7.056;2023-05-10T07:30:42;29.57;;;13.77;;
4112;SDS011;2070;51.042;7.056;2023-05-10T07:33:08;28.40;;;13.33;;
4112;SDS011;2070;51.042;7.056;2023-05-10T07:35:34;38.40;;;12.80;;
4112;SDS011;2070;51.042;7.056;2023-05-10T07:37:59;20.53;;;11.33;;
4112;SDS011;2070;51.042;7.056;2023-05-10T07:40:24;21.33;;;10.63;;
4112;SDS011;2070;51.042;7.056;2023-05-10T07:42:50;26.07;;;11.17;;
4112;SDS011;2070;51.042;7.056;2023-05-10T07:45:15;26.33;;;11.57;;
4112;SDS011;2070;51.042;7.056;2023-05-10T07:47:40;27.83;;;11.50;;
4112;SDS011;2070;51.042;7.056;2023-05-10T07:50:06;22.40;;;10.60;;
4112;SDS011;2070;51.042;7.056;2023-05-10T07:52:31;22.17;;;10.83;;
4112;SDS011;2070;51.042;7.056;2023-05-10T07:54:56;21.97;;;10.77;;
4112;SDS011;2070;51.042;7.056;2023-05-10T07:57:22;31.77;;;11.30;;
4112;SDS011;2070;51.042;7.056;2023-05-10T07:59:47;18.03;;;10.03;;
4112;SDS011;2070;51.042;7.056;2023-05-10T08:02:12;15.83;;;9.53;;
4112;SDS011;2070;51.042;7.056;2023-05-10T08:04:38;23.80;;;11.07;;
4112;SDS011;2070;51.042;7.056;2023-05-10T08:07:03;27.20;;;10.60;;
4112;SDS011;2070;51.042;7.056;2023-05-10T08:09:28;20.90;;;10.80;;
4112;SDS011;2070;51.042;7.056;2023-05-10T08:11:53;19.37;;;9.93;;
4112;SDS011;2070;51.042;7.056;2023-05-10T08:14:18;18.83;;;10.70;;
4112;SDS011;2070;51.042;7.056;2023-05-10T08:16:44;19.17;;;9.33;;
4112;SDS011;2070;51.042;7.056;2023-05-10T08:19:09;20.07;;;10.80;;
4112;SDS011;2070;51.042;7.056;2023-05-10T08:21:35;18.07;;;8.70;;
4112;SDS011;2070;51.042;7.056;2023-05-10T08:24:00;24.83;;;10.23;;
4112;SDS011;2070;51.042;7.056;2023-05-10T08:26:26;21.60;;;13.30;;
4112;SDS011;2070;51.042;7.056;2023-05-10T08:28:51;24.00;;;11.07;;
4112;SDS011;2070;51.042;7.056;2023-05-10T08:31:16;24.83;;;10.50;;
4112;SDS011;2070;51.042;7.056;2023-05-10T08:33:42;22.23;;;8.83;;
4112;SDS011;2070;51.042;7.056;2023-05-10T08:36:08;22.77;;;10.03;;
4112;SDS011;2070;51.042;7.056;2023-05-10T08:38:33;19.90;;;10.80;;
4112;SDS011;2070;51.042;7.056;2023-05-10T08:40:58;18.97;;;10.30;;
4112;SDS011;2070;51.042;7.056;2023-05-10T08:43:27;17.70;;;9.47;;
4112;SDS011;2070;51.042;7.056;2023-05-10T08:45:54;22.60;;;10.90;;
4112;SDS011;2070;51.042;7.056;2023-05-10T08:48:19;20.97;;;10.80;;
4112;SDS011;2070;51.042;7.056;2023-05-10T08:50:45;100.87;;;46.67;;
4112;SDS011;2070;51.042;7.056;2023-05-10T08:53:12;24.73;;;11.90;;
4112;SDS011;2070;51.042;7.056;2023-05-10T08:55:38;30.73;;;9.63;;
4112;SDS011;2070;51.042;7.056;2023-05-10T08:58:04;19.80;;;10.20;;
4112;SDS011;2070;51.042;7.056;2023-05-10T09:00:29;29.37;;;9.57;;
4112;SDS011;2070;51.042;7.056;2023-05-10T09:02:54;22.07;;;10.70;;
4112;SDS011;2070;51.042;7.056;2023-05-10T09:05:20;27.00;;;10.40;;
4112;SDS011;2070;51.042;7.056;2023-05-10T09:07:45;24.30;;;10.17;;
4112;SDS011;2070;51.042;7.056;2023-05-10T09:10:11;19.63;;;10.27;;
4112;SDS011;2070;51.042;7.056;2023-05-10T09:12:36;20.30;;;10.27;;
4112;SDS011;2070;51.042;7.056;2023-05-10T09:15:02;45.77;;;11.00;;
4112;SDS011;2070;51.042;7.056;2023-05-10T09:17:28;28.23;;;11.30;;
4112;SDS011;2070;51.042;7.056;2023-05-10T09:19:58;25.13;;;12.23;;
4112;SDS011;2070;51.042;7.056;2023-05-10T09:22:24;27.37;;;13.50;;
4112;SDS011;2070;51.042;7.056;2023-05-10T09:25:03;27.20;;;10.17;;
4112;SDS011;2070;51.042;7.056;2023-05-10T09:27:28;25.77;;;12.40;;
4112;SDS011;2070;51.042;7.056;2023-05-10T09:29:53;30.80;;;12.73;;
4112;SDS011;2070;51.042;7.056;2023-05-10T09:32:20;29.93;;;11.60;;
4112;SDS011;2070;51.042;7.056;2023-05-10T09:34:45;27.17;;;13.03;;
4112;SDS011;2070;51.042;7.056;2023-05-10T09:37:10;23.27;;;11.07;;
4112;SDS011;2070;51.042;7.056;2023-05-10T09:39:36;35.00;;;13.70;;
4112;SDS011;2070;51.042;7.056;2023-05-10T09:42:02;29.37;;;12.70;;
4112;SDS011;2070;51.042;7.056;2023-05-10T09:44:28;42.40;;;12.40;;
4112;SDS011;2070;51.042;7.056;2023-05-10T09:46:54;31.37;;;11.47;;
4112;SDS011;2070;51.042;7.056;2023-05-10T09:49:20;34.47;;;14.10;;
4112;SDS011;2070;51.042;7.056;2023-05-10T09:51:45;28.57;;;12.60;;
4112;SDS011;2070;51.042;7.056;2023-05-10T09:56:36;27.13;;;11.20;;
4112;SDS011;2070;51.042;7.056;2023-05-10T09:59:03;24.17;;;12.20;;
4112;SDS011;2070;51.042;7.056;2023-05-10T10:01:29;28.43;;;11.70;;
4112;SDS011;2070;51.042;7.056;2023-05-10T10:03:54;26.23;;;12.23;;
4112;SDS011;2070;51.042;7.056;2023-05-10T10:06:19;36.47;;;13.60;;
4112;SDS011;2070;51.042;7.056;2023-05-10T10:08:45;41.67;;;13.33;;
4112;SDS011;2070;51.042;7.056;2023-05-10T10:11:10;28.20;;;12.83;;
4112;SDS011;2070;51.042;7.056;2023-05-10T10:13:35;41.53;;;13.60;;
4112;SDS011;2070;51.042;7.056;2023-05-10T10:16:01;34.17;;;14.53;;
4112;SDS011;2070;51.042;7.056;2023-05-10T10:18:26;33.03;;;14.30;;
4112;SDS011;2070;51.042;7.056;2023-05-10T10:20:53;29.80;;;14.33;;
4112;SDS011;2070;51.042;7.056;2023-05-10T10:23:19;29.63;;;15.00;;
4112;SDS011;2070;51.042;7.056;2023-05-10T10:25:44;26.20;;;13.53;;
4112;SDS011;2070;51.042;7.056;2023-05-10T10:33:56;35.40;;;13.50;;
4112;SDS011;2070;51.042;7.056;2023-05-10T10:36:23;34.60;;;11.73;;
4112;SDS011;2070;51.042;7.056;2023-05-10T10:46:35;31.30;;;13.00;;
4112;SDS011;2070;51.042;7.056;2023-05-10T10:49:20;33.20;;;14.67;;
4112;SDS011;2070;51.042;7.056;2023-05-10T10:52:12;26.47;;;12.20;;
4112;SDS011;2070;51.042;7.056;2023-05-10T10:54:31;30.00;;;12.67;;
4112;SDS011;2070;51.042;7.056;2023-05-10T10:57:09;21.37;;;11.50;;
4112;SDS011;2070;51.042;7.056;2023-05-10T10:59:35;20.73;;;11.43;;
4112;SDS011;2070;51.042;7.056;2023-05-10T11:02:00;23.80;;;12.40;;
4112;SDS011;2070;51.042;7.056;2023-05-10T11:04:25;19.60;;;11.30;;
4112;SDS011;2070;51.042;7.056;2023-05-10T11:06:51;35.83;;;11.43;;
4112;SDS011;2070;51.042;7.056;2023-05-10T11:09:39;32.40;;;15.30;;
4112;SDS011;2070;51.042;7.056;2023-05-10T11:12:07;27.73;;;11.67;;
4112;SDS011;2070;51.042;7.056;2023-05-10T11:14:33;29.07;;;13.50;;
4112;SDS011;2070;51.042;7.056;2023-05-10T11:16:58;40.37;;;18.27;;
4112;SDS011;2070;51.042;7.056;2023-05-10T11:19:23;27.60;;;12.70;;
4112;SDS011;2070;51.042;7.056;2023-05-10T11:22:11;30.73;;;12.30;;
4112;SDS011;2070;51.042;7.056;2023-05-10T11:24:37;27.37;;;14.43;;
4112;SDS011;2070;51.042;7.056;2023-05-10T11:27:03;31.33;;;13.20;;
4112;SDS011;2070;51.042;7.056;2023-05-10T11:29:28;28.87;;;12.40;;
4112;SDS011;2070;51.042;7.056;2023-05-10T11:31:53;22.00;;;10.63;;
4112;SDS011;2070;51.042;7.056;2023-05-10T11:34:25;23.33;;;11.57;;
4112;SDS011;2070;51.042;7.056;2023-05-10T11:36:51;18.60;;;9.87;;
4112;SDS011;2070;51.042;7.056;2023-05-10T11:39:16;24.20;;;12.17;;
4112;SDS011;2070;51.042;7.056;2023-05-10T11:41:41;28.57;;;12.37;;
4112;SDS011;2070;51.042;7.056;2023-05-10T11:44:08;27.83;;;12.77;;
4112;SDS011;2070;51.042;7.056;2023-05-10T11:46:33;34.13;;;11.83;;
4112;SDS011;2070;51.042;7.056;2023-05-10T11:49:00;17.67;;;10.60;;
4112;SDS011;2070;51.042;7.056;2023-05-10T11:51:33;17.80;;;7.93;;
4112;SDS011;2070;51.042;7.056;2023-05-10T11:53:58;18.13;;;8.17;;
4112;SDS011;2070;51.042;7.056;2023-05-10T11:56:23;11.80;;;7.10;;
4112;SDS011;2070;51.042;7.056;2023-05-10T11:58:56;16.90;;;7.60;;
4112;SDS011;2070;51.042;7.056;2023-05-10T12:01:22;15.27;;;7.23;;
4112;SDS011;2070;51.042;7.056;2023-05-10T12:03:48;12.63;;;6.70;;
4112;SDS011;2070;51.042;7.056;2023-05-10T12:06:13;14.83;;;7.60;;
4112;SDS011;2070;51.042;7.056;2023-05-10T12:08:43;12.30;;;7.30;;
4112;SDS011;2070;51.042;7.056;2023-05-10T12:11:09;18.23;;;7.43;;
4112;SDS011;2070;51.042;7.056;2023-05-10T12:13:39;12.57;;;6.27;;
4112;SDS011;2070;51.042;7.056;2023-05-10T12:18:42;13.60;;;7.07;;
4112;SDS011;2070;51.042;7.056;2023-05-10T12:21:09;9.40;;;5.40;;
4112;SDS011;2070;51.042;7.056;2023-05-10T12:23:35;24.60;;;8.60;;
4112;SDS011;2070;51.042;7.056;2023-05-10T12:26:01;15.93;;;5.67;;
4112;SDS011;2070;51.042;7.056;2023-05-10T12:28:29;9.67;;;5.30;;
4112;SDS011;2070;51.042;7.056;2023-05-10T12:30:54;6.90;;;3.60;;
4112;SDS011;2070;51.042;7.056;2023-05-10T12:33:20;4.60;;;2.90;;
4112;SDS011;2070;51.042;7.056;2023-05-10T12:38:29;12.07;;;4.50;;
4112;SDS011;2070;51.042;7.056;2023-05-10T12:40:59;8.50;;;5.90;;
4112;SDS011;2070;51.042;7.056;2023-05-10T12:43:24;5.60;;;3.60;;
4112;SDS011;2070;51.042;7.056;2023-05-10T12:45:50;7.23;;;3.90;;
4112;SDS011;2070;51.042;7.056;2023-05-10T12:48:15;6.67;;;2.90;;
4112;SDS011;2070;51.042;7.056;2023-05-10T12:50:40;5.77;;;2.60;;
4112;SDS011;2070;51.042;7.056;2023-05-10T12:53:05;10.40;;;4.00;;
4112;SDS011;2070;51.042;7.056;2023-05-10T12:55:31;9.57;;;3.77;;
4112;SDS011;2070;51.042;7.056;2023-05-10T12:57:56;5.13;;;2.90;;
4112;SDS011;2070;51.042;7.056;2023-05-10T13:00:21;5.57;;;3.10;;
4112;SDS011;2070;51.042;7.056;2023-05-10T13:02:47;8.80;;;3.50;;
4112;SDS011;2070;51.042;7.056;2023-05-10T13:05:12;6.20;;;2.80;;
4112;SDS011;2070;51.042;7.056;2023-05-10T13:07:38;4.57;;;2.07;;
4112;SDS011;2070;51.042;7.056;2023-05-10T13:10:03;5.63;;;2.30;;
4112;SDS011;2070;51.042;7.056;2023-05-10T13:12:28;8.70;;;3.20;;
4112;SDS011;2070;51.042;7.056;2023-05-10T13:14:54;6.30;;;3.20;;
4112;SDS011;2070;51.042;7.056;2023-05-10T13:17:19;5.70;;;2.47;;
4112;SDS011;2070;51.042;7.056;2023-05-10T13:19:44;4.83;;;2.83;;
4112;SDS011;2070;51.042;7.056;2023-05-10T13:22:10;8.67;;;3.77;;
4112;SDS011;2070;51.042;7.056;2023-05-10T13:24:35;8.37;;;2.80;;
4112;SDS011;2070;51.042;7.056;2023-05-10T13:27:00;4.93;;;2.73;;
4112;SDS011;2070;51.042;7.056;2023-05-10T13:29:25;8.50;;;3.20;;
4112;SDS011;2070;51.042;7.056;2023-05-10T13:31:50;8.93;;;4.10;;
4112;SDS011;2070;51.042;7.056;2023-05-10T13:34:16;9.73;;;4.40;;
4112;SDS011;2070;51.042;7.056;2023-05-10T13:36:41;8.47;;;3.13;;
4112;SDS011;2070;51.042;7.056;2023-05-10T13:39:06;7.50;;;3.17;;
4112;SDS011;2070;51.042;7.056;2023-05-10T13:41:32;6.53;;;2.27;;
4112;SDS011;2070;51.042;7.056;2023-05-10T13:43:57;6.10;;;2.23;;
4112;SDS011;2070;51.042;7.056;2023-05-10T13:46:22;2.40;;;1.50;;
4112;SDS011;2070;51.042;7.056;2023-05-10T13:48:48;6.77;;;2.23;;
4112;SDS011;2070;51.042;7.056;2023-05-10T13:51:13;6.27;;;2.73;;
4112;SDS011;2070;51.042;7.056;2023-05-10T13:53:38;8.63;;;2.83;;
4112;SDS011;2070;51.042;7.056;2023-05-10T13:56:03;7.57;;;3.97;;
4112;SDS011;2070;51.042;7.056;2023-05-10T13:58:29;10.93;;;5.37;;
4112;SDS011;2070;51.042;7.056;2023-05-10T14:00:54;14.60;;;6.63;;
4112;SDS011;2070;51.042;7.056;2023-05-10T14:03:19;10.60;;;6.30;;
4112;SDS011;2070;51.042;7.056;2023-05-10T14:05:44;14.97;;;7.30;;
4112;SDS011;2070;51.042;7.056;2023-05-10T14:08:10;19.50;;;7.47;;
4112;SDS011;2070;51.042;7.056;2023-05-10T14:10:38;11.40;;;7.53;;
4112;SDS011;2070;51.042;7.056;2023-05-10T14:13:03;9.30;;;6.23;;
4112;SDS011;2070;51.042;7.056;2023-05-10T14:15:28;12.40;;;6.83;;
4112;SDS011;2070;51.042;7.056;2023-05-10T14:17:53;14.40;;;6.93;;
4112;SDS011;2070;51.042;7.056;2023-05-10T14:20:18;14.70;;;6.33;;
4112;SDS011;2070;51.042;7.056;2023-05-10T14:22:44;18.60;;;8.43;;
4112;SDS011;2070;51.042;7.056;2023-05-10T14:25:09;15.53;;;7.70;;
4112;SDS011;2070;51.042;7.056;2023-05-10T14:27:34;17.53;;;8.77;;
4112;SDS011;2070;51.042;7.056;2023-05-10T14:29:59;15.73;;;7.63;;
4112;SDS011;2070;51.042;7.056;2023-05-10T14:32:24;10.70;;;6.80;;
4112;SDS011;2070;51.042;7.056;2023-05-10T14:34:51;13.57;;;7.57;;
4112;SDS011;2070;51.042;7.056;2023-05-10T14:37:17;11.87;;;6.87;;
4112;SDS011;2070;51.042;7.056;2023-05-10T14:39:42;11.83;;;6.43;;
4112;SDS011;2070;51.042;7.056;2023-05-10T14:42:07;13.80;;;6.70;;
4112;SDS011;2070;51.042;7.056;2023-05-10T14:44:33;8.77;;;6.00;;
4112;SDS011;2070;51.042;7.056;2023-05-10T14:46:58;14.90;;;7.80;;
4112;SDS011;2070;51.042;7.056;2023-05-10T14:49:23;17.57;;;8.10;;
4112;SDS011;2070;51.042;7.056;2023-05-10T14:51:50;10.73;;;7.10;;
4112;SDS011;2070;51.042;7.056;2023-05-10T14:54:16;13.97;;;7.67;;
4112;SDS011;2070;51.042;7.056;2023-05-10T14:56:41;15.20;;;7.77;;
4112;SDS011;2070;51.042;7.056;2023-05-10T14:59:07;16.03;;;8.80;;
4112;SDS011;2070;51.042;7.056;2023-05-10T15:01:32;15.83;;;8.90;;
4112;SDS011;2070;51.042;7.056;2023-05-10T15:03:58;15.03;;;8.70;;
4112;SDS011;2070;51.042;7.056;2023-05-10T15:06:23;21.60;;;10.47;;
4112;SDS011;2070;51.042;7.056;2023-05-10T15:08:54;14.63;;;7.83;;
4112;SDS011;2070;51.042;7.056;2023-05-10T15:11:20;14.00;;;8.00;;
4112;SDS011;2070;51.042;7.056;2023-05-10T15:13:45;15.43;;;7.37;;
4112;SDS011;2070;51.042;7.056;2023-05-10T15:16:10;7.80;;;5.00;;
4112;SDS011;2070;51.042;7.056;2023-05-10T15:18:35;13.97;;;5.60;;
4112;SDS011;2070;51.042;7.056;2023-05-10T15:21:01;11.47;;;5.60;;
4112;SDS011;2070;51.042;7.056;2023-05-10T15:23:26;17.70;;;5.33;;
4112;SDS011;2070;51.042;7.056;2023-05-10T15:25:51;20.43;;;5.97;;
4112;SDS011;2070;51.042;7.056;2023-05-10T15:28:20;8.77;;;5.63;;
4112;SDS011;2070;51.042;7.056;2023-05-10T15:30:45;11.87;;;6.20;;
4112;SDS011;2070;51.042;7.056;2023-05-10T15:33:10;10.40;;;5.50;;
4112;SDS011;2070;51.042;7.056;2023-05-10T15:35:35;10.73;;;5.83;;
4112;SDS011;2070;51.042;7.056;2023-05-10T15:38:03;11.40;;;5.30;;